Pagrindinis puslapis
METAR-TAF:

METAR-TAF

Oro uostai :

Natalis, Rio Grande do Norte, Brazilija

platuma: 05-46-05S, ilguma: 035-22-34W, Aukštis: 88 m

Dabartinis oras

Ataskaita buvo paskelbta 37 minutes, ne 02:00 UTC
Vėjas 4 kt iš Pietvakarių
Temperatūra 26°C
Drėgmė 94%
Slėgis 1012 hPa
Matomumas 10 km arba daugiau
nėra debesų žemiau 1500 m ir nėra kamuolinių lietaus debesų

METAR: SBSG 090200Z 22004KT CAVOK 26/25 Q1012

Laikas: 23:37 (02:37 UTC)

Prognozė

Ataskaita buvo paskelbta 4 valandos ir 37 minutes, ne 22:00 UTC
Prognozė galioja nuo 09 metu 00 UTC su 09 metu 24 UTC
Vėjas 4 kt iš Pietvakarių
Matomumas 10 km arba daugiau
Išsisklaidę debesys ne aukštis 2800 ft
Tapsmas
nuo 09 metu 11 UTC su 09 metu 13 UTC
Vėjas 11 kt iš Pietų/Pietryčių
Tapsmas
nuo 09 metu 21 UTC su 09 metu 23 UTC
Vėjas 5 kt iš Pietų

TAF: SBSG 082200Z 0900/0924 22004KT 9999 SCT028 TN24/0906Z TX32/0914Z BECMG 0911/0913 16011KT BECMG 0921/0923 17005KT RMK PDU

Orai ataskaitas ir orų prognozės (METAR, TAF).

turimą stotys yra geltonos ir raudonos taškus žemėlapyje.

Perkelti pele per norėdami pamatyti stoties vardą.

Tada spustelėkite, norėdami matyti oro stebėjimo ir prognozės.

Norėdami pakeisti žemėlapį: spustelėkite ant žalios mygtukų su juodo kryžiaus žemyn,; žalią mygtuką su brūkšneliu, jei norite nutolinti; arba žalių rodyklių gretimoms žemėlapius.


METAR-TAF: